AQQ10 IFIS: Internet Flight Information System
logo dgac
Viernes 18 de Junio del 2021
Buscar por aerodromo o helipuerto
Ingrese nombre de aeródromo, localidad o designador OACI:
METAR del 18-06-2021 a las 21:00 UTC
Para mayor información visite www.meteochile.cl
METAR SCIP 182100Z 14012KT 090V190 9999 BKN025 19/13 Q1024 NOSIG
Viento: dirección 140 grados, velocidad 12 nudos
Viento con dirección variable entre 090 y 190 grados
Visibilidad: 10 km o más
Nubes: Nublado a 2500 pies sobre el nivel del aeródromo
Temperatura: 19 °C
Rocío: 13 °C
Humedad_relativa: 68%
Presión: 1024 hPa
No se esperan cambios significativos en las próximas 2 horas
METAR del 18-06-2021 a las 20:00 UTC
Para mayor información visite www.meteochile.cl
METAR SCIP 182000Z 13010KT 9999 FEW015 SCT025 BKN030 18/14 Q1024 RESHRA NOSIG
Viento: dirección 130 grados, velocidad 10 nudos
Visibilidad: 10 km o más
Nubes: Escasa nubosidad a 1500 pies sobre el nivel del aeródromo
Nubes: Nubosidad parcial a 2500 pies sobre el nivel del aeródromo
Nubes: Nublado a 3000 pies sobre el nivel del aeródromo
Temperatura: 18 °C
Rocío: 14 °C
Humedad_relativa: 77%
Presión: 1024 hPa
Se observó recientemente ChubascosLluvia
No se esperan cambios significativos en las próximas 2 horas
METAR del 18-06-2021 a las 19:00 UTC
Para mayor información visite www.meteochile.cl
METAR SCIP 181900Z 14010KT 9999 BKN015 BKN030 16/15 Q1025 RESHRA NOSIG
Viento: dirección 140 grados, velocidad 10 nudos
Visibilidad: 10 km o más
Nubes: Nublado a 1500 pies sobre el nivel del aeródromo
Nubes: Nublado a 3000 pies sobre el nivel del aeródromo
Temperatura: 16 °C
Rocío: 15 °C
Humedad_relativa: 94%
Presión: 1025 hPa
Se observó recientemente ChubascosLluvia
No se esperan cambios significativos en las próximas 2 horas
SPECI del 18-06-2021 a las 18:05 UTC
Para mayor información visite www.meteochile.cl
SPECI SCIP 181805Z 09009KT 040V100 3000 SHRA BKN015 BKN025 17/14 Q1025 NOSIG
Viento: dirección 090 grados, velocidad 9 nudos
Viento con dirección variable entre 040 y 100 grados
Visibilidad: 3000 metros
ChubascosLluvia
Nubes: Nublado a 1500 pies sobre el nivel del aeródromo
Nubes: Nublado a 2500 pies sobre el nivel del aeródromo
Temperatura: 17 °C
Rocío: 14 °C
Humedad_relativa: 83%
Presión: 1025 hPa
No se esperan cambios significativos en las próximas 2 horas
METAR del 18-06-2021 a las 18:00 UTC
Para mayor información visite www.meteochile.cl
METAR SCIP 181800Z 11012KT 040V140 9999 BKN020 SCT040 17/13 Q1025 NOSIG
Viento: dirección 110 grados, velocidad 12 nudos
Viento con dirección variable entre 040 y 140 grados
Visibilidad: 10 km o más
Nubes: Nublado a 2000 pies sobre el nivel del aeródromo
Nubes: Nubosidad parcial a 4000 pies sobre el nivel del aeródromo
Temperatura: 17 °C
Rocío: 13 °C
Humedad_relativa: 77%
Presión: 1025 hPa
No se esperan cambios significativos en las próximas 2 horas
METAR del 18-06-2021 a las 17:00 UTC
Para mayor información visite www.meteochile.cl
METAR SCIP 181700Z 15014KT 9999 SCT025 BKN040 18/12 Q1025 NOSIG
Viento: dirección 150 grados, velocidad 14 nudos
Visibilidad: 10 km o más
Nubes: Nubosidad parcial a 2500 pies sobre el nivel del aeródromo
Nubes: Nublado a 4000 pies sobre el nivel del aeródromo
Temperatura: 18 °C
Rocío: 12 °C
Humedad_relativa: 68%
Presión: 1025 hPa
No se esperan cambios significativos en las próximas 2 horas
METAR del 18-06-2021 a las 16:00 UTC
Para mayor información visite www.meteochile.cl
METAR SCIP 181600Z 15012KT 110V170 9999 SCT025 BKN040 17/12 Q1025 RESHRA NOSIG
Viento: dirección 150 grados, velocidad 12 nudos
Viento con dirección variable entre 110 y 170 grados
Visibilidad: 10 km o más
Nubes: Nubosidad parcial a 2500 pies sobre el nivel del aeródromo
Nubes: Nublado a 4000 pies sobre el nivel del aeródromo
Temperatura: 17 °C
Rocío: 12 °C
Humedad_relativa: 72%
Presión: 1025 hPa
Se observó recientemente ChubascosLluvia
No se esperan cambios significativos en las próximas 2 horas
SPECI del 18-06-2021 a las 15:10 UTC
Para mayor información visite www.meteochile.cl
SPECI SCIP 181510Z 16011KT 110V190 4000 SHRA BKN030 BKN050 17/12 Q1025 NOSIG
Viento: dirección 160 grados, velocidad 11 nudos
Viento con dirección variable entre 110 y 190 grados
Visibilidad: 4000 metros
ChubascosLluvia
Nubes: Nublado a 3000 pies sobre el nivel del aeródromo
Nubes: Nublado a 5000 pies sobre el nivel del aeródromo
Temperatura: 17 °C
Rocío: 12 °C
Humedad_relativa: 72%
Presión: 1025 hPa
No se esperan cambios significativos en las próximas 2 horas
METAR del 18-06-2021 a las 15:00 UTC
Para mayor información visite www.meteochile.cl
METAR SCIP 181500Z 15011KT 9999 SCT025 BKN050 17/12 Q1024 NOSIG
Viento: dirección 150 grados, velocidad 11 nudos
Visibilidad: 10 km o más
Nubes: Nubosidad parcial a 2500 pies sobre el nivel del aeródromo
Nubes: Nublado a 5000 pies sobre el nivel del aeródromo
Temperatura: 17 °C
Rocío: 12 °C
Humedad_relativa: 72%
Presión: 1024 hPa
No se esperan cambios significativos en las próximas 2 horas
METAR del 18-06-2021 a las 14:00 UTC
Para mayor información visite www.meteochile.cl
METAR SCIP 181400Z 14014KT 9999 -RA SCT020 BKN035 15/12 Q1024 NOSIG
Viento: dirección 140 grados, velocidad 14 nudos
Visibilidad: 10 km o más
Débil Lluvia
Nubes: Nubosidad parcial a 2000 pies sobre el nivel del aeródromo
Nubes: Nublado a 3500 pies sobre el nivel del aeródromo
Temperatura: 15 °C
Rocío: 12 °C
Humedad_relativa: 82%
Presión: 1024 hPa
No se esperan cambios significativos en las próximas 2 horas